Time;durP1;ratioP1;P1;durP2;ratioP2;P2;SDS_P1;SDS_P2;PMS_P1;PMS_P2;Temp;Humidity;BMP_temperature;BMP_pressure;BME280_temperature;BME280_humidity;BME280_pressure;Samples;Min_cycle;Max_cycle;Signal;HPM_P1;HPM_P2
2021/10/12 00:01:37;;;;;;;20.15;12.30;;;6.40;99.90;;;;;;5078419;28;20072;-80
2021/10/12 00:04:08;;;;;;;26.58;14.65;;;6.40;99.90;;;;;;5077688;28;20063;-81
2021/10/12 00:06:35;;;;;;;17.48;11.85;;;6.40;99.90;;;;;;5078426;28;20504;-81
2021/10/12 00:09:02;;;;;;;24.77;13.80;;;6.40;99.90;;;;;;5077981;28;20520;-82
2021/10/12 00:11:29;;;;;;;13.93;10.43;;;6.30;99.90;;;;;;5077271;28;20123;-81
2021/10/12 00:13:55;;;;;;;14.85;9.75;;;6.20;99.90;;;;;;5076069;28;20103;-81
2021/10/12 00:16:23;;;;;;;15.27;9.98;;;6.10;99.90;;;;;;5076083;28;20132;-81
2021/10/12 00:18:50;;;;;;;15.63;10.00;;;6.00;99.90;;;;;;5075986;28;20053;-80
2021/10/12 00:21:17;;;;;;;17.10;11.10;;;6.00;99.90;;;;;;5076922;28;20086;-81
2021/10/12 00:23:43;;;;;;;14.35;11.18;;;6.00;99.90;;;;;;5075497;28;20149;-80
2021/10/12 00:26:10;;;;;;;19.20;12.00;;;6.10;99.90;;;;;;5076939;28;20132;-80
2021/10/12 00:28:38;;;;;;;15.90;11.75;;;6.10;99.90;;;;;;5076617;28;20049;-80
2021/10/12 00:31:04;;;;;;;23.33;13.02;;;6.20;99.90;;;;;;5076083;28;20139;-80
2021/10/12 00:33:32;;;;;;;14.68;10.45;;;6.20;99.90;;;;;;5076220;28;20076;-80
2021/10/12 00:35:59;;;;;;;21.40;13.20;;;6.20;99.90;;;;;;5076281;28;20079;-80
2021/10/12 00:38:26;;;;;;;20.60;12.25;;;6.30;99.90;;;;;;5074629;28;20139;-81
2021/10/12 00:40:53;;;;;;;14.02;10.75;;;6.20;99.90;;;;;;5075826;28;20072;-80
2021/10/12 00:43:25;;;;;;;19.33;12.07;;;6.30;99.90;;;;;;5075922;28;20094;-81
2021/10/12 00:45:54;;;;;;;18.42;12.25;;;6.30;99.90;;;;;;5075676;28;20052;-81
2021/10/12 00:48:21;;;;;;;17.55;11.73;;;6.30;99.90;;;;;;5075514;28;20127;-80
2021/10/12 00:50:48;;;;;;;14.20;11.25;;;6.30;99.90;;;;;;5075826;28;20048;-80
2021/10/12 00:53:15;;;;;;;16.33;11.40;;;6.40;99.90;;;;;;5074149;28;20135;-80
2021/10/12 00:55:42;;;;;;;25.42;12.93;;;6.40;99.90;;;;;;5073187;28;20567;-80
2021/10/12 00:58:09;;;;;;;23.67;13.40;;;6.40;99.90;;;;;;5074485;28;20140;-80
2021/10/12 01:00:37;;;;;;;16.00;10.57;;;6.30;99.90;;;;;;5075437;28;20048;-80
2021/10/12 01:03:05;;;;;;;15.30;10.90;;;6.40;99.90;;;;;;5076292;28;20045;-84
2021/10/12 01:05:33;;;;;;;13.43;10.60;;;6.40;99.90;;;;;;5074453;28;20131;-80
2021/10/12 01:08:00;;;;;;;15.25;10.38;;;6.40;99.90;;;;;;5073733;28;20131;-80
2021/10/12 01:10:27;;;;;;;16.48;10.93;;;6.40;99.90;;;;;;5075021;28;20140;-81
2021/10/12 01:12:56;;;;;;;18.58;10.77;;;6.40;99.90;;;;;;5073972;28;20052;-80
2021/10/12 01:15:23;;;;;;;13.57;10.40;;;6.50;99.90;;;;;;5074370;28;20083;-80
2021/10/12 01:17:49;;;;;;;17.23;10.93;;;6.40;99.90;;;;;;5073878;28;20131;-81
2021/10/12 01:20:16;;;;;;;16.70;10.85;;;6.40;99.90;;;;;;5075676;28;20079;-80
2021/10/12 01:22:45;;;;;;;21.98;11.60;;;6.40;99.90;;;;;;5074661;28;20051;-81
2021/10/12 01:25:14;;;;;;;19.83;12.05;;;6.40;99.90;;;;;;5074552;28;20083;-81
2021/10/12 01:27:41;;;;;;;15.00;10.50;;;6.40;99.90;;;;;;5076217;28;20109;-82
2021/10/12 01:30:10;;;;;;;15.25;11.10;;;6.40;99.90;;;;;;5076366;28;20068;-82
2021/10/12 01:32:41;;;;;;;21.55;11.68;;;6.30;99.90;;;;;;5074876;28;20395;-80
2021/10/12 01:35:10;;;;;;;17.33;10.73;;;6.30;99.90;;;;;;5073060;28;20049;-80
2021/10/12 01:37:37;;;;;;;15.23;10.95;;;6.30;99.90;;;;;;5074142;28;20048;-80
2021/10/12 01:40:06;;;;;;;13.48;10.15;;;6.40;99.90;;;;;;5073355;28;20090;-82
2021/10/12 01:42:34;;;;;;;13.13;9.98;;;6.40;99.90;;;;;;5074524;28;20048;-80
2021/10/12 01:45:02;;;;;;;13.25;9.75;;;6.30;99.90;;;;;;5074223;28;20080;-80
2021/10/12 01:47:29;;;;;;;11.90;9.20;;;6.30;99.90;;;;;;5074631;28;20086;-80
2021/10/12 01:49:56;;;;;;;18.52;10.88;;;6.30;99.90;;;;;;5072875;28;20080;-80
2021/10/12 01:52:23;;;;;;;19.65;12.15;;;6.20;99.90;;;;;;5073230;28;20079;-80
2021/10/12 01:54:50;;;;;;;18.40;10.98;;;6.20;99.90;;;;;;5073933;28;20059;-81
2021/10/12 01:57:18;;;;;;;17.88;10.68;;;6.20;99.90;;;;;;5074225;28;20136;-80
2021/10/12 01:59:46;;;;;;;17.45;10.57;;;6.20;99.90;;;;;;5074564;28;20561;-80
2021/10/12 02:02:12;;;;;;;19.45;11.13;;;6.20;99.90;;;;;;5073239;28;20583;-80
2021/10/12 02:04:39;;;;;;;14.90;9.93;;;6.20;99.90;;;;;;5073267;28;20114;-80
2021/10/12 02:07:06;;;;;;;14.65;9.68;;;6.10;99.90;;;;;;5072446;28;20071;-80
2021/10/12 02:09:33;;;;;;;15.82;9.15;;;6.20;99.90;;;;;;5074631;28;20131;-80
2021/10/12 02:12:00;;;;;;;11.93;9.57;;;6.10;99.90;;;;;;5073295;28;20505;-79
2021/10/12 02:14:27;;;;;;;9.88;8.43;;;6.10;99.90;;;;;;5074348;28;20143;-81
2021/10/12 02:16:54;;;;;;;12.40;8.75;;;6.10;99.90;;;;;;5073226;28;20056;-82
2021/10/12 02:19:21;;;;;;;11.35;8.35;;;6.00;99.90;;;;;;5074566;28;20080;-79
2021/10/12 02:21:48;;;;;;;15.85;9.75;;;6.00;99.90;;;;;;5075538;28;20044;-84
2021/10/12 02:24:14;;;;;;;13.48;9.13;;;6.00;99.90;;;;;;5074445;28;20091;-80
2021/10/12 02:26:41;;;;;;;10.13;9.02;;;6.00;99.90;;;;;;5075663;28;20076;-80
2021/10/12 02:29:08;;;;;;;17.33;10.13;;;6.00;99.90;;;;;;5073785;28;20136;-81
2021/10/12 02:31:35;;;;;;;11.05;8.50;;;5.90;99.90;;;;;;5074480;28;20482;-81
2021/10/12 02:34:02;;;;;;;17.80;10.18;;;5.90;99.90;;;;;;5074301;28;20148;-80
2021/10/12 02:36:30;;;;;;;14.15;9.38;;;5.90;99.90;;;;;;5074660;28;20466;-81
2021/10/12 02:38:57;;;;;;;12.05;8.90;;;5.80;99.90;;;;;;5073988;28;20471;-81
2021/10/12 02:41:23;;;;;;;16.13;10.23;;;5.80;99.90;;;;;;5074156;28;20136;-81
2021/10/12 02:43:50;;;;;;;18.10;10.20;;;5.80;99.90;;;;;;5074283;28;20104;-80
2021/10/12 02:46:17;;;;;;;13.23;8.60;;;5.80;99.90;;;;;;5076156;28;20075;-81
2021/10/12 02:48:44;;;;;;;14.93;9.85;;;5.80;99.90;;;;;;5074900;28;20136;-82
2021/10/12 02:51:10;;;;;;;17.38;10.30;;;5.70;99.90;;;;;;5076775;28;20052;-80
2021/10/12 02:53:37;;;;;;;20.92;11.85;;;5.70;99.90;;;;;;5073609;28;20151;-80
2021/10/12 02:56:04;;;;;;;25.83;13.57;;;5.60;99.90;;;;;;5074518;28;20067;-81
2021/10/12 02:58:31;;;;;;;20.65;11.85;;;5.50;99.90;;;;;;5074375;28;20080;-80
2021/10/12 03:00:57;;;;;;;20.15;11.73;;;5.60;99.90;;;;;;5073066;28;20087;-81
2021/10/12 03:03:25;;;;;;;15.32;11.02;;;5.70;99.90;;;;;;5073169;28;20045;-80
2021/10/12 03:05:52;;;;;;;16.58;11.02;;;5.80;99.90;;;;;;5073653;28;20059;-81
2021/10/12 03:08:19;;;;;;;14.93;10.80;;;5.80;99.90;;;;;;5074754;28;20102;-80
2021/10/12 03:10:46;;;;;;;13.80;10.32;;;5.80;99.90;;;;;;5074366;28;20051;-80
2021/10/12 03:13:12;;;;;;;15.77;9.95;;;5.90;99.90;;;;;;5073289;28;20139;-80
2021/10/12 03:15:39;;;;;;;11.80;9.32;;;5.80;99.90;;;;;;5073122;28;20558;-80
2021/10/12 03:18:06;;;;;;;17.10;10.55;;;5.80;99.90;;;;;;5073606;28;20123;-80
2021/10/12 03:20:34;;;;;;;15.65;9.30;;;5.80;99.90;;;;;;5077059;28;20454;-80
2021/10/12 03:23:00;;;;;;;11.57;8.50;;;5.80;99.90;;;;;;5076468;28;20506;-80
2021/10/12 03:25:27;;;;;;;14.40;9.18;;;5.80;99.90;;;;;;5076974;28;20558;-80
2021/10/12 03:27:54;;;;;;;15.23;10.90;;;5.70;99.90;;;;;;5077891;28;20080;-80
2021/10/12 03:30:21;;;;;;;16.15;10.77;;;5.70;99.90;;;;;;5078010;28;20127;-81
2021/10/12 03:32:47;;;;;;;15.82;10.25;;;5.70;99.90;;;;;;5078111;28;20129;-80
2021/10/12 03:35:18;;;;;;;23.17;12.23;;;5.80;99.90;;;;;;5077867;28;20117;-79
2021/10/12 03:37:45;;;;;;;12.57;9.60;;;5.80;99.90;;;;;;5077428;28;20076;-84
2021/10/12 03:40:12;;;;;;;15.40;9.23;;;5.80;99.90;;;;;;5078305;28;20520;-82
2021/10/12 03:42:38;;;;;;;15.50;10.77;;;5.80;99.90;;;;;;5077380;28;20139;-83
2021/10/12 03:45:06;;;;;;;20.88;11.05;;;5.80;99.90;;;;;;5078010;28;20473;-84
2021/10/12 03:47:32;;;;;;;16.98;10.48;;;5.80;99.90;;;;;;5079353;28;20075;-84
2021/10/12 03:49:59;;;;;;;28.80;13.23;;;5.80;99.90;;;;;;5077074;28;20079;-80
2021/10/12 03:52:26;;;;;;;14.25;10.38;;;5.80;99.90;;;;;;5076589;28;20075;-80
2021/10/12 03:54:53;;;;;;;24.77;13.85;;;5.80;99.90;;;;;;5076092;28;20136;-80
2021/10/12 03:57:19;;;;;;;16.13;10.85;;;5.90;99.90;;;;;;5075739;28;20049;-81
2021/10/12 03:59:46;;;;;;;18.27;11.23;;;5.90;99.90;;;;;;5077134;28;20084;-80
2021/10/12 04:02:12;;;;;;;13.63;10.07;;;5.80;99.90;;;;;;5076469;28;20135;-80
2021/10/12 04:04:40;;;;;;;11.57;9.63;;;5.80;99.90;;;;;;5076504;28;20552;-81
2021/10/12 04:07:06;;;;;;;14.18;10.02;;;5.80;99.90;;;;;;5076914;28;20071;-81
2021/10/12 04:09:33;;;;;;;12.13;9.25;;;5.80;99.90;;;;;;5078942;28;20084;-82
2021/10/12 04:12:00;;;;;;;15.73;10.30;;;5.80;99.90;;;;;;5078246;28;20149;-80
2021/10/12 04:14:26;;;;;;;13.57;9.52;;;5.70;99.90;;;;;;5074842;28;20072;-80
2021/10/12 04:16:53;;;;;;;11.30;9.18;;;5.70;99.90;;;;;;5076209;28;20524;-80
2021/10/12 04:19:19;;;;;;;13.68;9.55;;;5.60;99.90;;;;;;5075124;28;20424;-80
2021/10/12 04:21:46;;;;;;;12.63;9.73;;;5.60;99.90;;;;;;5075101;28;20048;-80
2021/10/12 04:24:13;;;;;;;17.05;9.98;;;5.60;99.90;;;;;;5076213;28;20083;-80
2021/10/12 04:26:40;;;;;;;15.60;9.38;;;5.50;99.90;;;;;;5076720;28;20136;-81
2021/10/12 04:29:07;;;;;;;15.73;9.23;;;5.50;99.90;;;;;;5075444;28;20080;-80
2021/10/12 04:31:35;;;;;;;21.00;11.48;;;5.40;99.90;;;;;;5074886;28;20131;-80
2021/10/12 04:34:06;;;;;;;13.05;8.30;;;5.30;99.90;;;;;;5075846;28;20106;-80
2021/10/12 04:36:33;;;;;;;13.10;8.73;;;5.30;99.90;;;;;;5074315;28;20071;-79
2021/10/12 04:39:00;;;;;;;16.35;9.20;;;5.20;99.90;;;;;;5074197;28;20466;-79
2021/10/12 04:41:27;;;;;;;12.95;8.57;;;5.20;99.90;;;;;;5074700;28;20131;-80
2021/10/12 04:43:53;;;;;;;10.20;7.40;;;5.20;99.90;;;;;;5074443;28;20127;-80
2021/10/12 04:46:20;;;;;;;10.45;8.40;;;5.20;99.90;;;;;;5074077;28;20076;-79
2021/10/12 04:48:47;;;;;;;13.57;9.15;;;5.10;99.90;;;;;;5074069;28;20470;-80
2021/10/12 04:51:13;;;;;;;11.50;7.80;;;5.00;99.90;;;;;;5073853;28;20072;-80
2021/10/12 04:53:40;;;;;;;19.90;9.10;;;4.90;99.90;;;;;;5074028;28;20059;-79
2021/10/12 04:56:07;;;;;;;11.15;7.45;;;4.90;99.90;;;;;;5074038;28;20485;-80
2021/10/12 04:58:34;;;;;;;12.73;8.38;;;4.90;99.90;;;;;;5075650;28;20549;-80
2021/10/12 05:01:01;;;;;;;19.35;9.77;;;5.00;99.90;;;;;;5075340;28;20055;-80
2021/10/12 05:03:28;;;;;;;13.73;9.52;;;5.00;99.90;;;;;;5075088;28;20102;-79
2021/10/12 05:05:54;;;;;;;25.73;11.68;;;5.10;99.90;;;;;;5073701;28;20041;-80
2021/10/12 05:08:21;;;;;;;15.88;10.70;;;5.10;99.90;;;;;;5074096;28;20127;-79
2021/10/12 05:10:48;;;;;;;16.10;10.57;;;5.20;99.90;;;;;;5075365;28;20060;-79
2021/10/12 05:13:15;;;;;;;33.15;15.00;;;5.20;99.90;;;;;;5075165;28;20139;-80
2021/10/12 05:15:49;;;;;;;27.45;12.80;;;5.30;99.90;;;;;;5074578;28;20460;-80
2021/10/12 05:18:21;;;;;;;43.63;23.58;;;5.40;99.90;;;;;;5074061;28;20063;-80
2021/10/12 05:20:48;;;;;;;70.00;38.45;;;5.50;99.90;;;;;;5075607;28;20052;-81
2021/10/12 05:23:15;;;;;;;27.38;16.92;;;5.50;99.90;;;;;;5075402;28;20486;-81
2021/10/12 05:25:46;;;;;;;22.73;13.85;;;5.50;99.90;;;;;;5075804;28;20564;-81
2021/10/12 05:28:13;;;;;;;39.25;14.88;;;5.60;99.90;;;;;;5074798;28;20049;-81
2021/10/12 05:30:42;;;;;;;22.90;12.88;;;5.60;99.90;;;;;;5074788;28;20132;-81
2021/10/12 05:33:16;;;;;;;39.80;15.93;;;5.60;99.90;;;;;;5074155;28;20105;-80
2021/10/12 05:35:44;;;;;;;24.88;16.40;;;5.60;99.90;;;;;;5074149;28;20087;-80
2021/10/12 05:38:11;;;;;;;20.85;15.52;;;5.70;99.90;;;;;;5073505;28;20087;-80
2021/10/12 05:40:39;;;;;;;60.42;36.60;;;5.70;99.90;;;;;;5073223;28;20044;-80
2021/10/12 05:43:06;;;;;;;73.53;40.65;;;5.80;99.90;;;;;;5073083;28;20143;-80
2021/10/12 05:45:35;;;;;;;27.05;16.92;;;5.80;99.90;;;;;;5074726;28;20106;-80
2021/10/12 05:48:06;;;;;;;25.05;14.93;;;5.90;99.90;;;;;;5073747;28;20083;-79
2021/10/12 05:50:37;;;;;;;30.63;15.90;;;6.00;99.90;;;;;;5073654;28;20517;-80
2021/10/12 05:53:25;;;;;;;15.93;12.15;;;6.00;99.90;;;;;;5073697;28;20088;-80
2021/10/12 05:56:07;;;;;;;16.88;12.02;;;6.00;99.90;;;;;;5074595;28;20049;-80
2021/10/12 05:58:44;;;;;;;16.25;12.00;;;6.10;99.90;;;;;;5073586;28;20143;-79
2021/10/12 06:01:12;;;;;;;35.13;17.00;;;6.10;99.90;;;;;;5073255;28;20569;-79
2021/10/12 06:03:39;;;;;;;48.25;27.23;;;6.00;99.90;;;;;;5074225;28;20044;-80
2021/10/12 06:06:06;;;;;;;33.38;19.30;;;6.00;99.90;;;;;;5074161;28;20048;-81
2021/10/12 06:08:33;;;;;;;40.88;25.60;;;6.10;99.90;;;;;;5074010;28;20041;-80
2021/10/12 06:11:01;;;;;;;42.65;24.17;;;6.10;99.90;;;;;;5073415;28;20068;-80
2021/10/12 06:13:29;;;;;;;35.63;20.40;;;6.20;99.90;;;;;;5072837;28;20091;-80
2021/10/12 06:15:56;;;;;;;34.13;22.02;;;6.20;99.90;;;;;;5072851;28;20502;-83
2021/10/12 06:18:23;;;;;;;59.10;34.60;;;6.30;99.90;;;;;;5072588;28;20139;-82
2021/10/12 06:20:51;;;;;;;26.08;15.68;;;6.30;99.90;;;;;;5075187;28;20132;-84
2021/10/12 06:23:19;;;;;;;16.65;12.82;;;6.20;99.90;;;;;;5074450;28;20561;-83
2021/10/12 06:25:46;;;;;;;19.73;12.80;;;6.20;99.90;;;;;;5075788;28;20075;-83
2021/10/12 06:28:15;;;;;;;29.90;15.82;;;6.20;99.90;;;;;;5076540;28;20131;-83
2021/10/12 06:30:42;;;;;;;24.95;16.73;;;6.30;99.90;;;;;;5074925;28;20127;-84
2021/10/12 06:33:10;;;;;;;29.23;17.08;;;6.40;99.90;;;;;;5076673;28;20106;-84
2021/10/12 06:35:37;;;;;;;22.35;15.52;;;6.40;99.90;;;;;;5074766;28;20174;-83
2021/10/12 06:38:05;;;;;;;28.48;20.45;;;6.50;99.90;;;;;;5075351;28;20075;-84
2021/10/12 06:40:33;;;;;;;22.52;17.45;;;6.60;99.90;;;;;;5077728;28;20048;-84
2021/10/12 06:43:00;;;;;;;23.65;16.00;;;6.70;99.90;;;;;;5076410;28;20561;-84
2021/10/12 06:45:28;;;;;;;29.10;20.95;;;6.90;99.90;;;;;;5075295;28;20123;-84
2021/10/12 06:47:55;;;;;;;51.33;27.65;;;7.00;99.90;;;;;;5074938;28;20132;-83
2021/10/12 06:50:23;;;;;;;36.35;25.77;;;6.90;99.90;;;;;;5075490;28;20094;-84
2021/10/12 06:52:51;;;;;;;96.28;39.88;;;6.90;99.90;;;;;;5075342;28;20127;-84
2021/10/12 06:55:18;;;;;;;108.28;52.72;;;7.00;99.90;;;;;;5076955;28;20092;-83
2021/10/12 06:57:46;;;;;;;126.65;75.05;;;7.20;99.90;;;;;;5077216;28;20080;-84
2021/10/12 07:00:15;;;;;;;100.38;43.17;;;7.30;99.90;;;;;;5077064;28;20060;-84
2021/10/12 07:02:45;;;;;;;110.78;43.00;;;7.30;99.90;;;;;;5077031;28;20513;-84
2021/10/12 07:05:14;;;;;;;315.27;105.25;;;7.30;99.90;;;;;;5077257;28;20052;-84
2021/10/12 07:07:41;;;;;;;101.15;52.50;;;7.30;99.90;;;;;;5076775;28;20051;-82
2021/10/12 07:10:10;;;;;;;65.38;36.65;;;7.30;99.90;;;;;;5077093;28;20132;-84
2021/10/12 07:12:37;;;;;;;90.28;54.40;;;7.40;99.90;;;;;;5076937;28;20080;-84
2021/10/12 07:15:05;;;;;;;101.25;57.72;;;7.60;99.90;;;;;;5076449;28;20051;-84
2021/10/12 07:17:32;;;;;;;54.50;28.80;;;7.80;99.90;;;;;;5078311;28;20107;-83
2021/10/12 07:20:00;;;;;;;46.35;25.02;;;7.80;99.90;;;;;;5076654;28;20128;-83
2021/10/12 07:22:26;;;;;;;30.90;23.52;;;7.90;99.90;;;;;;5078404;28;20127;-84
2021/10/12 07:24:54;;;;;;;36.00;25.15;;;8.00;99.90;;;;;;5078260;28;20068;-84
2021/10/12 07:27:22;;;;;;;46.35;28.02;;;8.20;99.90;;;;;;5078219;28;20132;-84
2021/10/12 07:29:54;;;;;;;36.35;27.20;;;8.40;99.90;;;;;;5077189;28;20099;-82
2021/10/12 07:32:21;;;;;;;53.75;29.58;;;8.50;99.90;;;;;;5077720;28;20088;-83
2021/10/12 07:34:47;;;;;;;31.00;20.00;;;8.70;99.90;;;;;;5076003;28;20048;-80
2021/10/12 07:37:15;;;;;;;28.73;21.38;;;8.80;99.90;;;;;;5075394;28;20234;-84
2021/10/12 07:39:42;;;;;;;36.10;24.45;;;9.00;99.90;;;;;;5078878;28;20079;-84
2021/10/12 07:42:10;;;;;;;40.92;28.25;;;9.10;99.90;;;;;;5077572;28;20144;-84
2021/10/12 07:44:38;;;;;;;37.13;26.80;;;9.50;99.90;;;;;;5077590;28;20146;-84
2021/10/12 07:47:06;;;;;;;26.52;19.73;;;9.90;99.90;;;;;;5077857;28;20131;-84
2021/10/12 07:49:34;;;;;;;13.38;10.90;;;9.90;99.90;;;;;;5077439;28;20612;-84
2021/10/12 07:52:07;;;;;;;23.70;16.35;;;9.80;99.90;;;;;;5077301;28;20068;-84
2021/10/12 07:55:27;;;;;;;51.13;32.13;;;9.70;99.90;;;;;;5077731;28;20556;-84
2021/10/12 07:57:25;;;;;;;50.90;25.08;;;9.90;99.90;;;;;;5075614;28;20131;-84
2021/10/12 07:59:52;;;;;;;22.17;15.60;;;9.60;99.90;;;;;;5077808;28;20080;-83
2021/10/12 08:02:19;;;;;;;20.98;14.27;;;9.40;99.90;;;;;;5079565;28;20131;-83
2021/10/12 08:04:46;;;;;;;15.40;10.52;;;9.40;99.90;;;;;;5078407;28;20434;-84
2021/10/12 08:07:12;;;;;;;31.33;20.70;;;9.40;99.90;;;;;;5077398;28;20091;-85
2021/10/12 08:09:39;;;;;;;23.25;14.02;;;9.60;99.90;;;;;;5077435;28;20153;-84
2021/10/12 08:12:07;;;;;;;14.73;11.60;;;9.70;99.90;;;;;;5077208;28;20152;-85
2021/10/12 08:14:39;;;;;;;14.07;10.43;;;9.90;99.90;;;;;;5075916;28;20083;-84
2021/10/12 08:17:06;;;;;;;11.15;10.00;;;10.00;99.90;;;;;;5075538;28;20502;-84
2021/10/12 08:19:33;;;;;;;12.65;10.95;;;10.30;99.90;;;;;;5076248;28;20052;-83
2021/10/12 08:22:01;;;;;;;8.70;7.22;;;10.70;99.90;;;;;;5075072;28;20448;-83
2021/10/12 08:24:30;;;;;;;4.20;3.80;;;11.10;99.90;;;;;;5076374;28;20051;-85
2021/10/12 08:26:57;;;;;;;4.68;4.20;;;11.20;99.90;;;;;;5075326;28;20049;-82
2021/10/12 08:29:26;;;;;;;1.58;1.20;;;11.40;99.90;;;;;;5075608;28;20087;-85
2021/10/12 08:31:52;;;;;;;2.58;1.70;;;11.50;99.90;;;;;;5076556;28;20190;-86
2021/10/12 08:34:19;;;;;;;1.67;1.48;;;11.90;99.90;;;;;;5075227;28;20056;-84
2021/10/12 08:36:46;;;;;;;1.73;1.10;;;12.30;99.90;;;;;;5075207;28;20136;-86
2021/10/12 08:39:13;;;;;;;2.92;1.40;;;12.70;99.90;;;;;;5075219;28;20049;-86
2021/10/12 08:42:03;;;;;;;2.42;1.70;;;12.80;99.90;;;;;;5075319;28;20057;-83
2021/10/12 08:44:31;;;;;;;2.85;2.13;;;12.90;99.90;;;;;;5076558;28;20091;-86
2021/10/12 08:46:58;;;;;;;6.90;5.07;;;13.10;99.90;;;;;;5075920;28;20045;-85
2021/10/12 08:49:25;;;;;;;3.63;0.90;;;13.70;99.90;;;;;;5075472;28;20056;-83
2021/10/12 08:51:51;;;;;;;1.55;0.80;;;13.80;99.90;;;;;;5075832;28;20464;-79
2021/10/12 08:54:18;;;;;;;1.95;1.23;;;13.90;99.90;;;;;;5075197;28;20044;-80
2021/10/12 08:56:45;;;;;;;1.75;0.90;;;13.50;99.90;;;;;;5074237;28;20052;-80
2021/10/12 08:59:12;;;;;;;2.50;0.70;;;13.40;99.90;;;;;;5075269;28;20433;-79
2021/10/12 09:01:56;;;;;;;1.73;0.70;;;13.10;99.90;;;;;;5078175;28;20490;-81
2021/10/12 09:04:24;;;;;;;6.13;1.55;;;14.10;99.90;;;;;;5076171;28;20052;-81
2021/10/12 09:06:54;;;;;;;1.23;0.73;;;14.90;99.90;;;;;;5075939;28;20070;-83
2021/10/12 09:09:34;;;;;;;1.42;0.40;;;16.60;99.90;;;;;;5075459;28;20072;-81
2021/10/12 09:12:03;;;;;;;5.47;0.70;;;18.00;99.90;;;;;;5078403;28;20080;-79
2021/10/12 09:14:29;;;;;;;1.33;0.50;;;18.30;99.90;;;;;;5078209;28;20131;-79
2021/10/12 09:17:06;;;;;;;1.10;0.32;;;17.90;99.90;;;;;;5075913;28;20123;-80
2021/10/12 09:19:34;;;;;;;1.23;0.30;;;17.40;99.90;;;;;;5079371;28;20466;-81
2021/10/12 09:22:05;;;;;;;5.68;1.00;;;16.40;99.90;;;;;;5081180;28;20048;-82
2021/10/12 09:24:39;;;;;;;9.23;0.73;;;15.50;99.90;;;;;;5080933;28;20094;-82
2021/10/12 09:27:09;;;;;;;2.70;0.55;;;14.70;99.90;;;;;;5083789;28;20048;-82
2021/10/12 09:29:38;;;;;;;0.80;0.68;;;14.20;99.90;;;;;;5081831;28;20091;-83
2021/10/12 09:32:08;;;;;;;2.53;0.65;;;13.50;99.90;;;;;;5078895;28;20091;-81
2021/10/12 09:34:36;;;;;;;0.75;0.75;;;13.00;99.90;;;;;;5074469;28;20052;-82
2021/10/12 09:37:05;;;;;;;1.13;0.80;;;12.50;99.90;;;;;;5074873;28;20084;-81
2021/10/12 09:39:45;;;;;;;0.88;0.70;;;12.20;99.90;;;;;;5075063;28;20056;-80
2021/10/12 09:42:14;;;;;;;2.03;0.98;;;12.20;99.90;;;;;;5076402;28;20123;-81
2021/10/12 09:44:55;;;;;;;2.35;0.90;;;12.20;99.90;;;;;;5075222;28;20048;-82
2021/10/12 09:47:22;;;;;;;3.40;1.30;;;12.30;99.90;;;;;;5075785;28;20055;-81
2021/10/12 09:50:04;;;;;;;1.27;1.00;;;12.20;99.90;;;;;;5077877;28;20075;-81
2021/10/12 09:52:35;;;;;;;2.05;1.10;;;12.10;99.90;;;;;;5076555;28;20560;-80
2021/10/12 09:55:02;;;;;;;1.05;0.77;;;11.90;99.90;;;;;;5076981;28;20091;-81
2021/10/12 09:57:30;;;;;;;0.82;0.75;;;11.90;99.90;;;;;;5075043;28;20127;-81
2021/10/12 09:59:57;;;;;;;1.30;0.90;;;11.70;99.90;;;;;;5075038;28;20506;-79
2021/10/12 10:02:25;;;;;;;1.65;1.00;;;11.50;99.90;;;;;;5075361;28;20091;-79
2021/10/12 10:04:53;;;;;;;3.70;1.20;;;11.20;99.90;;;;;;5074420;28;20045;-80
2021/10/12 10:07:25;;;;;;;1.98;1.30;;;11.00;99.90;;;;;;5074222;28;20456;-81
2021/10/12 10:09:56;;;;;;;2.13;1.10;;;10.80;99.90;;;;;;5074421;28;20048;-81
2021/10/12 10:12:25;;;;;;;3.75;1.55;;;10.70;99.90;;;;;;5073504;28;20127;-84
2021/10/12 10:14:52;;;;;;;1.60;1.17;;;10.60;99.90;;;;;;5074390;28;20480;-86
2021/10/12 10:17:23;;;;;;;2.85;1.40;;;10.50;99.90;;;;;;5073436;28;20118;-86
2021/10/12 10:19:50;;;;;;;1.48;1.35;;;10.50;99.90;;;;;;5075580;28;20131;-85
2021/10/12 10:22:37;;;;;;;1.23;1.13;;;10.40;99.90;;;;;;5075312;28;20179;-85
2021/10/12 10:25:22;;;;;;;3.25;1.50;;;10.30;99.90;;;;;;5073852;28;20045;-85
2021/10/12 10:27:48;;;;;;;2.25;1.90;;;10.40;99.90;;;;;;5075616;28;20080;-86
2021/10/12 10:30:29;;;;;;;4.07;1.40;;;10.30;99.90;;;;;;5077961;28;20508;-85
2021/10/12 10:33:04;;;;;;;2.70;1.50;;;10.40;99.90;;;;;;5078095;28;20494;-85
2021/10/12 10:35:43;;;;;;;2.35;1.98;;;10.40;99.90;;;;;;5076925;28;20076;-84
2021/10/12 10:38:25;;;;;;;5.22;1.90;;;10.50;99.90;;;;;;5077479;28;20498;-86
2021/10/12 10:41:04;;;;;;;4.20;2.00;;;10.40;99.90;;;;;;5077245;28;20052;-85
2021/10/12 10:43:49;;;;;;;5.70;2.60;;;10.40;99.90;;;;;;5079078;28;20087;-83
2021/10/12 10:46:31;;;;;;;4.57;2.88;;;10.20;99.90;;;;;;5080389;28;20104;-84
2021/10/12 10:49:06;;;;;;;8.05;3.10;;;10.20;99.90;;;;;;5077229;28;20044;-84
2021/10/12 10:51:58;;;;;;;7.85;2.80;;;10.20;99.90;;;;;;5078064;28;20477;-83
2021/10/12 10:54:43;;;;;;;7.00;2.83;;;10.30;99.90;;;;;;5076753;28;20052;-84
2021/10/12 10:57:11;;;;;;;2.63;2.42;;;10.50;99.90;;;;;;5076666;28;20048;-83
2021/10/12 10:59:38;;;;;;;3.90;2.72;;;10.60;99.90;;;;;;5076985;28;20524;-83
2021/10/12 11:02:28;;;;;;;3.30;2.67;;;10.80;99.90;;;;;;5076579;28;20139;-84
2021/10/12 11:04:56;;;;;;;7.15;3.33;;;10.90;99.90;;;;;;5077193;28;20044;-84
2021/10/12 11:07:27;;;;;;;6.13;3.78;;;10.90;99.90;;;;;;5076967;28;20549;-84
2021/10/12 11:09:55;;;;;;;9.75;5.43;;;10.90;99.90;;;;;;5077973;28;20055;-84
2021/10/12 11:12:23;;;;;;;7.40;4.10;;;10.70;99.90;;;;;;5077932;28;20051;-82
2021/10/12 11:14:52;;;;;;;9.05;4.85;;;10.50;99.90;;;;;;5077999;28;20136;-83
2021/10/12 11:17:23;;;;;;;6.25;3.58;;;10.40;99.90;;;;;;5077001;28;20493;-83
2021/10/12 11:20:01;;;;;;;4.90;3.33;;;10.40;99.90;;;;;;5076944;28;20068;-84
2021/10/12 11:22:29;;;;;;;4.72;3.35;;;10.50;99.90;;;;;;5076381;28;20076;-84
2021/10/12 11:24:57;;;;;;;4.20;2.78;;;10.70;99.90;;;;;;5075717;28;20110;-83
2021/10/12 11:27:43;;;;;;;2.67;2.47;;;10.80;99.90;;;;;;5076269;28;20045;-83
2021/10/12 11:30:12;;;;;;;4.63;2.45;;;10.90;99.90;;;;;;5076140;28;20048;-84
2021/10/12 11:32:39;;;;;;;2.92;2.30;;;11.00;99.90;;;;;;5076446;28;20076;-83
2021/10/12 11:35:11;;;;;;;2.85;2.65;;;11.20;99.90;;;;;;5075859;28;20048;-83
2021/10/12 11:37:54;;;;;;;2.63;2.33;;;11.40;99.90;;;;;;5075522;28;20494;-83
2021/10/12 11:40:24;;;;;;;2.75;2.55;;;11.50;99.90;;;;;;5076786;28;20075;-83
2021/10/12 11:42:52;;;;;;;2.10;1.55;;;11.70;99.90;;;;;;5076199;28;20052;-83
2021/10/12 11:45:19;;;;;;;1.70;1.60;;;11.60;99.90;;;;;;5078249;28;20041;-83
2021/10/12 11:47:45;;;;;;;2.95;1.63;;;11.70;99.90;;;;;;5075687;28;20475;-83
2021/10/12 11:50:15;;;;;;;2.47;1.50;;;11.60;99.90;;;;;;5077133;28;20456;-82
2021/10/12 11:52:47;;;;;;;3.88;1.38;;;11.40;99.90;;;;;;5077421;28;20548;-83
2021/10/12 11:55:14;;;;;;;1.85;1.30;;;11.30;99.90;;;;;;5077672;28;20060;-83
2021/10/12 11:57:45;;;;;;;3.90;1.42;;;11.10;99.90;;;;;;5077892;28;20067;-84
2021/10/12 12:00:12;;;;;;;3.55;1.42;;;10.80;99.90;;;;;;5077626;28;20127;-84
2021/10/12 12:02:42;;;;;;;1.83;1.73;;;10.60;99.90;;;;;;5077222;28;20071;-83
2021/10/12 12:05:11;;;;;;;1.88;1.63;;;10.50;99.90;;;;;;5075904;28;20044;-83
2021/10/12 12:07:43;;;;;;;2.55;2.10;;;10.60;99.90;;;;;;5075591;28;20102;-84
2021/10/12 12:10:10;;;;;;;1.83;1.67;;;10.80;99.90;;;;;;5075332;28;20044;-84
2021/10/12 12:12:41;;;;;;;2.45;1.40;;;10.80;99.90;;;;;;5076832;28;20144;-84
2021/10/12 12:15:08;;;;;;;2.28;2.08;;;10.90;99.90;;;;;;5075405;28;20668;-83
2021/10/12 12:17:36;;;;;;;1.60;1.50;;;10.90;99.90;;;;;;5075246;28;20135;-83
2021/10/12 12:20:11;;;;;;;2.33;2.10;;;11.10;99.90;;;;;;5075178;28;20095;-84
2021/10/12 12:22:43;;;;;;;3.90;1.58;;;11.30;99.90;;;;;;5076880;28;20052;-83
2021/10/12 12:25:17;;;;;;;2.55;1.42;;;11.30;99.90;;;;;;5075220;28;20044;-84
2021/10/12 12:27:54;;;;;;;2.15;1.40;;;11.20;99.90;;;;;;5075007;28;20083;-83
2021/10/12 12:30:36;;;;;;;1.77;1.50;;;11.10;99.90;;;;;;5076339;28;20498;-85
2021/10/12 12:33:03;;;;;;;1.77;1.67;;;11.00;99.90;;;;;;5076431;28;20584;-84
2021/10/12 12:35:44;;;;;;;2.90;1.90;;;10.90;99.90;;;;;;5074922;28;20561;-84
2021/10/12 12:38:11;;;;;;;3.22;1.73;;;10.80;99.90;;;;;;5075870;28;20158;-83
2021/10/12 12:40:39;;;;;;;2.17;1.90;;;10.70;99.90;;;;;;5074909;28;20060;-85
2021/10/12 12:43:35;;;;;;;2.05;1.70;;;10.60;99.90;;;;;;5074826;28;20086;-83
2021/10/12 12:46:15;;;;;;;1.83;1.73;;;10.60;99.90;;;;;;5074623;28;20147;-83
2021/10/12 12:49:10;;;;;;;2.30;1.35;;;10.70;99.90;;;;;;5075502;28;20571;-85
2021/10/12 12:51:46;;;;;;;3.72;1.17;;;10.50;99.90;;;;;;5074225;28;20084;-83